createdAt,value
2018-01-11T00:01:27.674Z,101101.09
2018-01-11T00:03:55.301Z,101096.12
2018-01-11T00:06:22.953Z,101103.24
2018-01-11T00:08:50.617Z,101099.48
2018-01-11T00:11:18.323Z,101093.69
2018-01-11T00:13:45.977Z,101089.92
2018-01-11T00:16:13.878Z,101100.53
2018-01-11T00:18:41.838Z,101100.80
2018-01-11T00:21:09.650Z,101103.91
2018-01-11T00:23:37.293Z,101098.53
2018-01-11T00:26:04.933Z,101102.28
2018-01-11T00:28:32.520Z,101099.31
2018-01-11T00:31:00.116Z,101101.98
2018-01-11T00:33:27.706Z,101094.47
2018-01-11T00:35:55.314Z,101096.88
2018-01-11T00:38:23.197Z,101095.93
2018-01-11T00:40:50.808Z,101103.72
2018-01-11T00:43:18.605Z,101099.66
2018-01-11T00:45:46.493Z,101107.33
2018-01-11T00:48:14.082Z,101111.73
2018-01-11T00:50:41.702Z,101114.81
2018-01-11T00:53:09.355Z,101117.36
2018-01-11T00:55:37.284Z,101123.80
2018-01-11T00:58:04.887Z,101120.19
2018-01-11T01:00:32.742Z,101118.98
2018-01-11T01:03:00.316Z,101124.48
2018-01-11T01:05:27.961Z,101123.69
2018-01-11T01:07:55.523Z,101128.80
2018-01-11T01:10:23.341Z,101130.28
2018-01-11T01:12:51.024Z,101128.39
2018-01-11T01:15:18.623Z,101131.23
2018-01-11T01:17:46.238Z,101133.23
2018-01-11T01:20:13.802Z,101131.38
2018-01-11T01:22:41.662Z,101135.78
2018-01-11T01:25:09.229Z,101146.80
2018-01-11T01:27:36.846Z,101142.51
2018-01-11T01:30:04.507Z,101141.45
2018-01-11T01:32:32.175Z,101141.18
2018-01-11T01:35:00.100Z,101146.70
2018-01-11T01:37:27.686Z,101149.93
2018-01-11T01:39:55.313Z,101147.38
2018-01-11T01:42:22.907Z,101155.95
2018-01-11T01:44:50.495Z,101159.47
2018-01-11T01:47:18.302Z,101159.34
2018-01-11T01:49:46.269Z,101160.55
2018-01-11T01:52:13.896Z,101158.27
2018-01-11T01:54:41.510Z,101156.52
2018-01-11T01:57:09.458Z,101155.45
2018-01-11T01:59:37.050Z,101158.52
2018-01-11T02:02:04.697Z,101153.83
2018-01-11T02:04:32.319Z,101151.79
2018-01-11T02:06:59.989Z,101150.31
2018-01-11T02:09:27.823Z,101156.38
2018-01-11T02:11:55.426Z,101160.28
2018-01-11T02:14:23.038Z,101155.56
2018-01-11T02:16:50.642Z,101160.14
2018-01-11T02:19:18.267Z,101169.41
2018-01-11T02:21:45.859Z,101155.56
2018-01-11T02:24:13.520Z,101164.04
2018-01-11T02:26:41.407Z,101159.61
2018-01-11T02:29:09.060Z,101163.09
2018-01-11T02:31:36.610Z,101157.56
2018-01-11T02:34:04.496Z,101159.18
2018-01-11T02:36:32.200Z,101160.80
2018-01-11T02:38:59.757Z,101162.55
2018-01-11T02:41:27.688Z,101162.53
2018-01-11T02:43:55.305Z,101160.64
2018-01-11T02:46:22.870Z,101166.15
2018-01-11T02:48:50.509Z,101169.39
2018-01-11T02:51:18.075Z,101175.42
2018-01-11T02:53:45.665Z,101168.04
2018-01-11T02:56:13.337Z,101170.72
2018-01-11T02:58:41.329Z,101171.08
2018-01-11T03:01:08.914Z,101172.55
2018-01-11T03:03:36.514Z,101184.50
2018-01-11T03:06:04.198Z,101186.48
2018-01-11T03:08:31.754Z,101193.73
2018-01-11T03:10:59.407Z,101192.88
2018-01-11T03:13:27.089Z,101195.70
2018-01-11T03:15:54.649Z,101197.72
2018-01-11T03:18:22.268Z,101200.27
2018-01-11T03:20:49.860Z,101200.56
2018-01-11T03:23:17.737Z,101206.08
2018-01-11T03:25:45.642Z,101203.11
2018-01-11T03:28:13.272Z,101199.08
2018-01-11T03:30:40.833Z,101207.42
2018-01-11T03:33:08.435Z,101207.67
2018-01-11T03:35:36.473Z,101197.62
2018-01-11T03:38:04.271Z,101198.70
2018-01-11T03:40:31.830Z,101200.98
2018-01-11T03:42:59.451Z,101202.63
2018-01-11T03:45:27.325Z,101204.12
2018-01-11T03:47:54.922Z,101211.77
2018-01-11T03:50:22.476Z,101210.01
2018-01-11T03:52:50.117Z,101216.61
2018-01-11T03:55:17.711Z,101215.66
2018-01-11T03:57:45.842Z,101215.27
2018-01-11T04:00:13.436Z,101224.15
2018-01-11T04:02:41.082Z,101219.30
2018-01-11T04:05:08.697Z,101221.31
2018-01-11T04:07:36.270Z,101222.67
2018-01-11T04:10:03.883Z,101228.19
2018-01-11T04:12:31.517Z,101236.63
2018-01-11T04:14:59.428Z,101238.52
2018-01-11T04:17:27.341Z,101245.52
2018-01-11T04:19:54.895Z,101243.48
2018-01-11T04:22:22.482Z,101247.27
2018-01-11T04:24:50.426Z,101252.77
2018-01-11T04:27:18.221Z,101252.36
2018-01-11T04:29:46.168Z,101256.52
2018-01-11T04:32:13.825Z,101261.22
2018-01-11T04:34:41.399Z,101261.76
2018-01-11T04:37:09.246Z,101264.58
2018-01-11T04:39:36.857Z,101266.05
2018-01-11T04:42:04.427Z,101272.09
2018-01-11T04:44:32.005Z,101275.98
2018-01-11T04:46:59.651Z,101279.50
2018-01-11T04:49:27.241Z,101284.20
2018-01-11T04:51:54.944Z,101284.48
2018-01-11T04:54:22.887Z,101289.44
2018-01-11T04:56:50.483Z,101285.26
2018-01-11T04:59:18.227Z,101288.63
2018-01-11T05:01:46.110Z,101285.67
2018-01-11T05:04:13.701Z,101293.47
2018-01-11T05:06:41.365Z,101297.91
2018-01-11T05:09:08.916Z,101295.64
2018-01-11T05:11:36.524Z,101303.93
2018-01-11T05:14:04.108Z,101309.44
2018-01-11T05:16:31.697Z,101309.44
2018-01-11T05:18:59.363Z,101308.52
2018-01-11T05:21:26.916Z,101304.61
2018-01-11T05:23:54.474Z,101311.45
2018-01-11T05:26:22.057Z,101311.87
2018-01-11T05:28:49.954Z,101314.81
2018-01-11T05:31:17.518Z,101311.61
2018-01-11T05:33:45.259Z,101314.03
2018-01-11T05:36:12.916Z,101316.02
2018-01-11T05:38:40.472Z,101319.80
2018-01-11T05:41:08.143Z,101318.17
2018-01-11T05:43:35.978Z,101317.76
2018-01-11T05:46:04.654Z,101322.20
2018-01-11T05:48:32.252Z,101327.73
2018-01-11T05:50:59.866Z,101321.27
2018-01-11T05:53:27.502Z,101329.73
2018-01-11T05:55:55.157Z,101328.81
2018-01-11T05:58:22.784Z,101336.33
2018-01-11T06:00:50.690Z,101335.24
2018-01-11T06:03:18.513Z,101352.30
2018-01-11T06:05:46.071Z,101350.56
2018-01-11T06:08:13.724Z,101354.73
2018-01-11T06:10:41.358Z,101361.83
2018-01-11T06:13:09.046Z,101357.80
2018-01-11T06:15:36.913Z,101356.45
2018-01-11T06:18:04.583Z,101363.71
2018-01-11T06:20:32.793Z,101365.19
2018-01-11T06:23:00.513Z,101369.48
2018-01-11T06:25:28.252Z,101373.51
2018-01-11T06:27:55.972Z,101371.19
2018-01-11T06:30:23.558Z,101372.41
2018-01-11T06:32:51.202Z,101378.84
2018-01-11T06:35:18.802Z,101387.31
2018-01-11T06:37:46.605Z,101385.27
2018-01-11T06:40:14.452Z,101399.91
2018-01-11T06:42:42.037Z,101399.63
2018-01-11T06:45:09.653Z,101404.48
2018-01-11T06:47:37.330Z,101413.48
2018-01-11T06:50:04.928Z,101408.52
2018-01-11T06:52:32.721Z,101409.03
2018-01-11T06:55:00.371Z,101415.49
2018-01-11T06:57:28.044Z,101410.63
2018-01-11T06:59:55.627Z,101422.34
2018-01-11T07:02:23.258Z,101424.06
2018-01-11T07:04:51.145Z,101421.09
2018-01-11T07:07:18.762Z,101425.67
2018-01-11T07:09:46.320Z,101430.39
2018-01-11T07:12:14.262Z,101439.09
2018-01-11T07:14:41.969Z,101444.05
2018-01-11T07:17:09.586Z,101451.60
2018-01-11T07:19:37.423Z,101457.11
2018-01-11T07:22:05.008Z,101453.45
2018-01-11T07:24:32.664Z,101470.78
2018-01-11T07:27:00.299Z,101467.30
2018-01-11T07:29:28.036Z,101468.94
2018-01-11T07:31:55.623Z,101470.69
2018-01-11T07:34:23.190Z,101475.52
2018-01-11T07:36:50.810Z,101483.16
2018-01-11T07:39:18.369Z,101486.27
2018-01-11T07:41:45.992Z,101496.69
2018-01-11T07:44:13.799Z,101490.94
2018-01-11T07:46:41.804Z,101499.00
2018-01-11T07:49:09.363Z,101499.92
2018-01-11T07:51:36.942Z,101500.72
2018-01-11T07:54:04.558Z,101498.71
2018-01-11T07:56:32.458Z,101502.73
2018-01-11T07:59:00.088Z,101517.90
2018-01-11T08:01:27.985Z,101520.17
2018-01-11T08:03:55.700Z,101522.19
2018-01-11T08:06:23.333Z,101523.94
2018-01-11T08:08:50.922Z,101527.84
2018-01-11T08:11:18.828Z,101526.21
2018-01-11T08:13:46.502Z,101531.33
2018-01-11T08:16:14.153Z,101539.38
2018-01-11T08:18:41.861Z,101543.31
2018-01-11T08:21:09.653Z,101546.80
2018-01-11T08:23:37.249Z,101552.81
2018-01-11T08:26:04.805Z,101554.16
2018-01-11T08:28:32.542Z,101555.92
2018-01-11T08:31:00.180Z,101554.98
2018-01-11T08:33:27.843Z,101556.84
2018-01-11T08:35:55.481Z,101564.67
2018-01-11T08:38:23.132Z,101566.69
2018-01-11T08:40:50.797Z,101572.09
2018-01-11T08:43:18.767Z,101569.83
2018-01-11T08:45:46.360Z,101572.52
2018-01-11T08:48:13.956Z,101577.69
2018-01-11T08:50:41.577Z,101584.53
2018-01-11T08:53:09.183Z,101592.05
2018-01-11T08:55:36.877Z,101590.20
2018-01-11T08:58:04.671Z,101590.20
2018-01-11T09:00:32.220Z,101592.21
2018-01-11T09:02:59.800Z,101587.52
2018-01-11T09:05:27.466Z,101589.66
2018-01-11T09:07:55.095Z,101600.97
2018-01-11T09:10:22.683Z,101598.28
2018-01-11T09:12:50.539Z,101605.16
2018-01-11T09:15:18.101Z,101606.25
2018-01-11T09:17:45.750Z,101611.78
2018-01-11T09:20:13.310Z,101612.77
2018-01-11T09:22:41.259Z,101615.46
2018-01-11T09:25:08.921Z,101618.59
2018-01-11T09:27:36.524Z,101623.07
2018-01-11T09:30:04.090Z,101618.66
2018-01-11T09:32:32.024Z,101622.30
2018-01-11T09:34:59.629Z,101631.22
2018-01-11T09:37:27.253Z,101632.44
2018-01-11T09:39:54.865Z,101634.61
2018-01-11T09:42:22.758Z,101629.08
2018-01-11T09:44:50.389Z,101632.73
2018-01-11T09:47:17.953Z,101636.89
2018-01-11T09:49:45.578Z,101639.58
2018-01-11T09:52:13.411Z,101643.09
2018-01-11T09:54:41.378Z,101647.67
2018-01-11T09:57:09.421Z,101641.14
2018-01-11T09:59:37.084Z,101644.78
2018-01-11T10:02:04.921Z,101647.22
2018-01-11T10:04:32.553Z,101641.36
2018-01-11T10:07:00.198Z,101645.93
2018-01-11T10:09:28.058Z,101643.27
2018-01-11T10:11:55.935Z,101647.88
2018-01-11T10:14:23.535Z,101644.26
2018-01-11T10:16:51.146Z,101648.55
2018-01-11T10:19:18.709Z,101647.23
2018-01-11T10:21:46.367Z,101647.67
2018-01-11T10:24:15.200Z,101650.66
2018-01-11T10:26:42.913Z,101652.51
2018-01-11T10:29:10.805Z,101649.84
2018-01-11T10:31:38.388Z,101647.06
2018-01-11T10:34:06.015Z,101648.97
2018-01-11T10:36:33.756Z,101651.53
2018-01-11T10:39:01.319Z,101656.84
2018-01-11T10:41:29.150Z,101658.06
2018-01-11T10:43:56.744Z,101655.66
2018-01-11T10:46:24.392Z,101657.95
2018-01-11T10:48:51.995Z,101651.55
2018-01-11T10:51:19.794Z,101651.31
2018-01-11T10:53:47.744Z,101646.63
2018-01-11T10:56:15.605Z,101652.81
2018-01-11T10:58:43.311Z,101650.80
2018-01-11T11:01:16.577Z,101656.05
2018-01-11T11:03:44.203Z,101660.75
2018-01-11T11:06:12.012Z,101661.70
2018-01-11T11:08:39.643Z,101666.28
2018-01-11T11:11:07.230Z,101664.99
2018-01-11T11:13:34.825Z,101664.73
2018-01-11T11:16:02.437Z,101671.22
2018-01-11T11:18:30.050Z,101675.57
2018-01-11T11:20:57.675Z,101670.91
2018-01-11T11:23:25.261Z,101668.14
2018-01-11T11:25:52.920Z,101673.41
2018-01-11T11:28:21.534Z,101672.50
2018-01-11T11:30:49.558Z,101685.07
2018-01-11T11:33:18.901Z,101683.64
2018-01-11T11:35:46.757Z,101681.37
2018-01-11T11:38:14.612Z,101679.64
2018-01-11T11:40:42.206Z,101684.53
2018-01-11T11:43:09.769Z,101686.84
2018-01-11T11:45:37.408Z,101690.36
2018-01-11T11:48:05.229Z,101690.12
2018-01-11T11:50:33.078Z,101696.59
2018-01-11T11:53:00.677Z,101702.55
2018-01-11T11:55:28.270Z,101699.32
2018-01-11T11:57:56.273Z,101708.64
2018-01-11T12:00:23.923Z,101708.94
2018-01-11T12:02:51.915Z,101714.33
2018-01-11T12:05:19.885Z,101716.22
2018-01-11T12:07:47.478Z,101723.09
2018-01-11T12:10:15.088Z,101724.90
2018-01-11T12:12:42.696Z,101726.42
2018-01-11T12:15:10.396Z,101721.71
2018-01-11T12:17:37.983Z,101721.64
2018-01-11T12:20:05.857Z,101725.73
2018-01-11T12:22:33.451Z,101721.99
2018-01-11T12:25:01.074Z,101733.23
2018-01-11T12:27:28.701Z,101726.92
2018-01-11T12:29:56.598Z,101735.46
2018-01-11T12:32:24.172Z,101741.68
2018-01-11T12:34:51.853Z,101728.92
2018-01-11T12:37:19.449Z,101732.97
2018-01-11T12:39:47.166Z,101732.23
2018-01-11T12:42:14.764Z,101736.80
2018-01-11T12:44:42.673Z,101729.80
2018-01-11T12:47:10.288Z,101733.34
2018-01-11T12:49:37.847Z,101727.82
2018-01-11T12:52:05.447Z,101726.73
2018-01-11T12:54:33.335Z,101724.19
2018-01-11T12:57:00.932Z,101726.76
2018-01-11T12:59:28.566Z,101739.73
2018-01-11T13:01:56.138Z,101743.10
2018-01-11T13:04:23.734Z,101746.06
2018-01-11T13:06:51.403Z,101740.66
2018-01-11T13:09:19.091Z,101738.89
2018-01-11T13:11:46.726Z,101740.64
2018-01-11T13:14:14.285Z,101745.88
2018-01-11T13:16:41.932Z,101750.88
2018-01-11T13:19:09.850Z,101749.37
2018-01-11T13:21:37.413Z,101755.69
2018-01-11T13:24:05.022Z,101752.47
2018-01-11T13:26:32.590Z,101755.17
2018-01-11T13:29:00.497Z,101763.41
2018-01-11T13:31:28.054Z,101762.41
2018-01-11T13:33:55.645Z,101766.98
2018-01-11T13:36:23.599Z,101769.14
2018-01-11T13:38:51.439Z,101766.84
2018-01-11T13:41:19.059Z,101767.09
2018-01-11T13:43:46.800Z,101765.87
2018-01-11T13:46:14.463Z,101781.12
2018-01-11T13:48:42.095Z,101784.62
2018-01-11T13:51:09.757Z,101791.90
2018-01-11T13:53:37.388Z,101798.64
2018-01-11T13:56:04.997Z,101791.75
2018-01-11T13:58:32.582Z,101796.56
2018-01-11T14:01:00.198Z,101800.38
2018-01-11T14:03:27.823Z,101800.60
2018-01-11T14:05:55.451Z,101810.30
2018-01-11T14:08:23.298Z,101811.38
2018-01-11T14:10:50.924Z,101816.20
2018-01-11T14:13:18.534Z,101822.14
2018-01-11T14:15:46.114Z,101819.16
2018-01-11T14:18:13.702Z,101826.36
2018-01-11T14:20:41.331Z,101823.76
2018-01-11T14:23:09.032Z,101837.50
2018-01-11T14:25:36.681Z,101837.50
2018-01-11T14:28:04.489Z,101841.95
2018-01-11T14:30:32.112Z,101845.86
2018-01-11T14:32:59.972Z,101850.45
2018-01-11T14:35:28.000Z,101847.47
2018-01-11T14:37:55.860Z,101847.73
2018-01-11T14:40:23.722Z,101851.91
2018-01-11T14:42:51.430Z,101854.44
2018-01-11T14:45:19.060Z,101859.30
2018-01-11T14:47:46.660Z,101865.38
2018-01-11T14:50:14.362Z,101873.87
2018-01-11T14:52:41.968Z,101876.27
2018-01-11T14:55:09.554Z,101873.55
2018-01-11T14:57:37.241Z,101878.11
2018-01-11T15:00:04.942Z,101878.89
2018-01-11T15:02:32.574Z,101879.95
2018-01-11T15:05:00.225Z,101877.11
2018-01-11T15:07:27.903Z,101885.88
2018-01-11T15:09:55.536Z,101888.00
2018-01-11T15:12:23.256Z,101889.88
2018-01-11T15:14:50.875Z,101897.26
2018-01-11T15:17:18.521Z,101902.03
2018-01-11T15:19:46.077Z,101907.76
2018-01-11T15:22:13.649Z,101906.92
2018-01-11T15:24:41.319Z,101914.83
2018-01-11T15:27:08.936Z,101915.98
2018-01-11T15:29:36.533Z,101914.97
2018-01-11T15:32:04.099Z,101923.41
2018-01-11T15:34:31.789Z,101915.05
2018-01-11T15:36:59.589Z,101928.20
2018-01-11T15:39:27.521Z,101924.87
2018-01-11T15:41:55.218Z,101923.17
2018-01-11T15:44:23.772Z,101927.95
2018-01-11T15:46:51.437Z,101931.41
2018-01-11T15:49:19.064Z,101931.09
2018-01-11T15:51:47.063Z,101933.42
2018-01-11T15:54:14.631Z,101938.06
2018-01-11T15:56:42.509Z,101937.45
2018-01-11T15:59:10.140Z,101948.17
2018-01-11T16:01:37.771Z,101952.56
2018-01-11T16:04:05.412Z,101948.73
2018-01-11T16:06:33.047Z,101952.06
2018-01-11T16:09:00.824Z,101950.77
2018-01-11T16:11:28.690Z,101962.22
2018-01-11T16:13:56.348Z,101951.16
2018-01-11T16:16:23.963Z,101952.37
2018-01-11T16:18:51.664Z,101957.14
2018-01-11T16:21:19.230Z,101963.44
2018-01-11T16:23:46.824Z,101966.69
2018-01-11T16:26:14.434Z,101969.88
2018-01-11T16:28:42.072Z,101976.27
2018-01-11T16:31:09.718Z,101974.62
2018-01-11T16:33:37.641Z,101976.05
2018-01-11T16:36:05.254Z,101977.06
2018-01-11T16:38:32.838Z,101979.29
2018-01-11T16:41:00.467Z,101984.88
2018-01-11T16:43:28.026Z,101978.48
2018-01-11T16:45:55.946Z,101990.48
2018-01-11T16:48:23.542Z,101988.94
2018-01-11T16:50:51.134Z,101992.66
2018-01-11T16:53:18.744Z,101995.80
2018-01-11T16:55:46.296Z,101987.56
2018-01-11T16:58:13.999Z,101991.64
2018-01-11T17:00:41.766Z,101995.75
2018-01-11T17:03:09.395Z,101993.67
2018-01-11T17:05:36.975Z,101999.54
2018-01-11T17:08:04.646Z,102003.52
2018-01-11T17:10:32.237Z,102006.65
2018-01-11T17:12:59.802Z,102009.67
2018-01-11T17:15:27.681Z,102013.73
2018-01-11T17:17:55.303Z,102006.89
2018-01-11T17:20:22.870Z,102011.84
2018-01-11T17:22:50.485Z,102013.96
2018-01-11T17:25:18.302Z,102020.69
2018-01-11T17:27:45.932Z,102023.19
2018-01-11T17:30:13.580Z,102024.54
2018-01-11T17:32:41.237Z,102024.66
2018-01-11T17:35:08.787Z,102026.26
2018-01-11T17:37:36.574Z,102038.48
2018-01-11T17:40:04.174Z,102035.94
2018-01-11T17:42:31.767Z,102040.74
2018-01-11T17:44:59.328Z,102044.89
2018-01-11T17:47:27.291Z,102054.77
2018-01-11T17:49:55.096Z,102051.66
2018-01-11T17:52:23.032Z,102051.97
2018-01-11T17:54:50.604Z,102050.03
2018-01-11T17:57:18.193Z,102049.98
2018-01-11T17:59:45.842Z,102052.09
2018-01-11T18:02:13.435Z,102056.56
2018-01-11T18:04:46.596Z,102057.45
2018-01-11T18:07:14.255Z,102065.20
2018-01-11T18:09:41.834Z,102063.17
2018-01-11T18:12:18.182Z,102069.81
2018-01-11T18:14:45.777Z,102067.87
2018-01-11T18:17:13.403Z,102073.06
2018-01-11T18:19:40.998Z,102072.88
2018-01-11T18:22:08.595Z,102080.66
2018-01-11T18:24:36.234Z,102083.43
2018-01-11T18:27:03.908Z,102087.06
2018-01-11T18:29:31.516Z,102089.98
2018-01-11T18:31:59.101Z,102095.84
2018-01-11T18:34:26.662Z,102103.51
2018-01-11T18:36:54.364Z,102104.42
2018-01-11T18:39:22.238Z,102096.09
2018-01-11T18:41:49.876Z,102103.31
2018-01-11T18:44:17.467Z,102105.22
2018-01-11T18:46:45.252Z,102114.34
2018-01-11T18:49:12.813Z,102114.27
2018-01-11T18:51:40.448Z,102118.39
2018-01-11T18:54:08.410Z,102117.68
2018-01-11T18:56:37.384Z,102123.69
2018-01-11T19:01:38.847Z,102125.91
2018-01-11T19:04:06.398Z,102127.87
2018-01-11T19:06:34.332Z,102127.77
2018-01-11T19:09:04.284Z,102132.29
2018-01-11T19:11:32.184Z,102130.88
2018-01-11T19:13:59.749Z,102134.22
2018-01-11T19:16:27.357Z,102133.98
2018-01-11T19:18:55.015Z,102139.04
2018-01-11T19:21:22.822Z,102146.28
2018-01-11T19:23:51.477Z,102150.65
2018-01-11T19:26:19.151Z,102144.87
2018-01-11T19:28:46.788Z,102147.98
2018-01-11T19:31:14.486Z,102154.44
2018-01-11T19:33:42.189Z,102161.48
2018-01-11T19:36:09.884Z,102159.73
2018-01-11T19:38:37.464Z,102161.94
2018-01-11T19:41:05.460Z,102161.75
2018-01-11T19:43:33.264Z,102161.44
2018-01-11T19:46:00.892Z,102165.04
2018-01-11T19:48:28.739Z,102162.17
2018-01-11T19:50:56.625Z,102160.91
2018-01-11T19:53:24.598Z,102161.70
2018-01-11T19:55:52.323Z,102164.31
2018-01-11T19:58:19.902Z,102159.67
2018-01-11T20:00:47.472Z,102163.81
2018-01-11T20:03:15.063Z,102162.01
2018-01-11T20:05:42.670Z,102161.09
2018-01-11T20:08:10.351Z,102167.55
2018-01-11T20:10:38.229Z,102170.61
2018-01-11T20:13:06.194Z,102166.97
2018-01-11T20:15:34.079Z,102173.56
2018-01-11T20:18:01.939Z,102178.48
2018-01-11T20:20:29.536Z,102176.37
2018-01-11T20:22:57.469Z,102180.12
2018-01-11T20:25:25.112Z,102176.21
2018-01-11T20:27:52.939Z,102179.73
2018-01-11T20:30:20.661Z,102177.73
2018-01-11T20:32:48.322Z,102174.70
2018-01-11T20:35:15.951Z,102180.25
2018-01-11T20:37:43.594Z,102178.29
2018-01-11T20:40:11.188Z,102193.11
2018-01-11T20:42:38.843Z,102194.83
2018-01-11T20:45:06.398Z,102194.68
2018-01-11T20:47:34.036Z,102197.25
2018-01-11T20:50:01.871Z,102200.08
2018-01-11T20:52:29.826Z,102201.91
2018-01-11T20:54:57.433Z,102197.47
2018-01-11T20:57:25.045Z,102207.57
2018-01-11T20:59:52.669Z,102210.25
2018-01-11T21:02:20.311Z,102199.30
2018-01-11T21:04:47.938Z,102200.63
2018-01-11T21:07:15.570Z,102200.75
2018-01-11T21:09:43.234Z,102207.10
2018-01-11T21:12:10.877Z,102210.50
2018-01-11T21:14:38.559Z,102211.73
2018-01-11T21:17:06.447Z,102211.73
2018-01-11T21:19:34.423Z,102215.94
2018-01-11T21:22:02.065Z,102218.31
2018-01-11T21:24:29.746Z,102216.05
2018-01-11T21:26:57.428Z,102219.31
2018-01-11T21:29:25.041Z,102210.69
2018-01-11T21:31:52.641Z,102218.73
2018-01-11T21:34:20.290Z,102225.33
2018-01-11T21:36:47.888Z,102230.27
2018-01-11T21:39:15.454Z,102233.52
2018-01-11T21:41:43.201Z,102234.13
2018-01-11T21:44:10.858Z,102228.46
2018-01-11T21:46:38.432Z,102230.64
2018-01-11T21:49:06.958Z,102231.98
2018-01-11T21:51:34.790Z,102229.45
2018-01-11T21:54:02.381Z,102230.41
2018-01-11T21:56:30.367Z,102232.25
2018-01-11T21:58:58.167Z,102232.97
2018-01-11T22:01:26.621Z,102230.06
2018-01-11T22:03:54.310Z,102225.30
2018-01-11T22:06:21.912Z,102224.22
2018-01-11T22:08:49.544Z,102230.13
2018-01-11T22:11:17.104Z,102231.70
2018-01-11T22:13:44.934Z,102232.20
2018-01-11T22:16:12.624Z,102242.94
2018-01-11T22:18:40.229Z,102247.37
2018-01-11T22:21:08.097Z,102235.95
2018-01-11T22:23:36.098Z,102248.30
2018-01-11T22:26:03.670Z,102246.57
2018-01-11T22:28:31.247Z,102252.12
2018-01-11T22:30:58.932Z,102264.26
2018-01-11T22:33:26.532Z,102264.46
2018-01-11T22:35:54.129Z,102272.00
2018-01-11T22:38:21.741Z,102270.02
2018-01-11T22:40:49.365Z,102272.58
2018-01-11T22:43:17.008Z,102280.51
2018-01-11T22:45:44.603Z,102278.78
2018-01-11T22:48:12.615Z,102279.61
2018-01-11T22:50:40.268Z,102283.33
2018-01-11T22:53:08.213Z,102286.92
2018-01-11T22:55:36.024Z,102289.00
2018-01-11T22:58:03.581Z,102303.75
2018-01-11T23:00:31.251Z,102296.23
2018-01-11T23:02:59.209Z,102297.47
2018-01-11T23:05:27.088Z,102306.97
2018-01-11T23:07:55.045Z,102295.98
2018-01-11T23:10:22.634Z,102308.87
2018-01-11T23:12:50.287Z,102300.94
2018-01-11T23:15:17.849Z,102306.48
2018-01-11T23:17:45.539Z,102312.61
2018-01-11T23:20:13.164Z,102317.70
2018-01-11T23:22:40.770Z,102319.20
2018-01-11T23:25:08.461Z,102320.66
2018-01-11T23:27:36.067Z,102318.02
2018-01-11T23:30:04.047Z,102323.90
2018-01-11T23:32:31.615Z,102323.30
2018-01-11T23:34:59.214Z,102321.31
2018-01-11T23:37:27.198Z,102331.70
2018-01-11T23:39:54.846Z,102329.55
2018-01-11T23:42:22.518Z,102325.75
2018-01-11T23:44:50.498Z,102323.41
2018-01-11T23:47:18.186Z,102324.52
2018-01-11T23:49:45.752Z,102335.97
2018-01-11T23:52:13.380Z,102333.30
2018-01-11T23:54:40.973Z,102340.19
2018-01-11T23:57:09.011Z,102339.77
2018-01-11T23:59:36.613Z,102336.23
